Airfield :
LOGIN :

Register | Disclaimer

   EN    FR    IT 

 










Legend :    VFR   Marginal VFR   IFR   Intensive IFR   Very Intensive IFR
Visi :
Ceiling :
>= 8 km
>= 3000ft
5 to 8 km
1000 to 3000 ft
1500m to 5 km
500 to 1000 ft
800 to 1500m
200 to 500 ft
< 800m
< 200 ft
Symbols :   Thunderstorms  Fog  Heavy snow  Heavy precipitations  Wind > 20 kt
SIGMETs :     Misc.  Thunderstorms  Icing  Turbulence  Mountain Waves  Volcanic Ashes






- Airport Elevation : 821 ft
- IATA code : LYS


LFLL - Lyon St Exupéry / Satolas

CURRENT METAR :
  • 110030Z 15003KT 120V200 5000 BR NSC 01/M01 Q1020 NOSIG

EXPIRED METARs :
  • 110000Z VRB02KT 5000 BR NSC 01/M01 Q1021 NOSIG
  • 102330Z 21005KT 150V270 5000 BR NSC 01/M01 Q1021 NOSIG
  • 102300Z 15008KT CAVOK 01/M00 Q1022 NOSIG
  • 102230Z 14009KT CAVOK 01/M01 Q1022 NOSIG
  • 102200Z 13007KT CAVOK 01/M01 Q1022 NOSIG

TAF AMD TAF LFLL
Valid from the 11 at 00:00 until the 12 at 06:00 UTC


110010Z 1100/1206 16005KT CAVOK
TEMPO 1100/1105 4500 BR
BECMG 1110/1112 20010KT RA SCT030 OVC050
TEMPO 1113/1115 20010G20KT
BECMG 1116/1118 NSW BKN055



MET'MAP, your aeronautical weather chart ! - Copyright ORBIFLY December 2007 - Disclaimer

ORBIFLY MET'MAP TEAM :

Programming & Development : Alexandra Zaïnal
Concept & original design : Baudouin d'Aumeries
Assistance for programming : Marc-Olivier Méhu
Technical & hardware support : Manuel Goepfert

Contact : metmap@orbifly.com




SOURCES & CREDITS :

   NOAA